createdAt,value
2022-10-19T00:00:47.359Z,16.90
2022-10-19T00:03:14.169Z,16.90
2022-10-19T00:05:40.833Z,16.90
2022-10-19T00:08:07.762Z,16.90
2022-10-19T00:10:34.817Z,16.90
2022-10-19T00:13:01.385Z,16.90
2022-10-19T00:15:27.955Z,16.90
2022-10-19T00:17:55.862Z,16.90
2022-10-19T00:20:22.488Z,16.90
2022-10-19T00:22:50.666Z,16.90
2022-10-19T00:25:17.272Z,16.90
2022-10-19T00:27:44.469Z,16.90
2022-10-19T00:30:11.243Z,16.90
2022-10-19T00:32:37.827Z,16.90
2022-10-19T00:35:04.749Z,16.90
2022-10-19T00:37:31.364Z,16.90
2022-10-19T00:39:57.935Z,16.90
2022-10-19T00:42:24.630Z,16.80
2022-10-19T00:44:51.252Z,16.80
2022-10-19T00:47:23.216Z,16.90
2022-10-19T00:49:49.855Z,16.90
2022-10-19T00:52:19.532Z,16.90
2022-10-19T00:54:48.056Z,16.90
2022-10-19T00:57:15.421Z,16.90
2022-10-19T00:59:44.315Z,16.90
2022-10-19T01:02:10.964Z,16.80
2022-10-19T01:04:41.970Z,16.90
2022-10-19T01:07:09.045Z,16.90
2022-10-19T01:09:35.672Z,16.80
2022-10-19T01:12:24.082Z,16.80
2022-10-19T01:15:16.032Z,16.80
2022-10-19T01:17:45.616Z,16.90
2022-10-19T01:20:32.261Z,16.80
2022-10-19T01:23:29.198Z,16.80
2022-10-19T01:26:22.887Z,16.80
2022-10-19T01:29:29.479Z,16.80
2022-10-19T01:32:05.206Z,16.80
2022-10-19T01:34:53.648Z,16.80
2022-10-19T01:37:35.785Z,16.80
2022-10-19T01:40:05.840Z,16.80
2022-10-19T01:42:34.129Z,16.80
2022-10-19T01:45:06.395Z,16.80
2022-10-19T01:47:41.396Z,16.80
2022-10-19T01:50:37.940Z,16.80
2022-10-19T01:53:08.784Z,16.80
2022-10-19T01:55:40.979Z,16.80
2022-10-19T01:58:09.876Z,16.80
2022-10-19T02:00:40.989Z,16.90
2022-10-19T02:03:09.145Z,16.80
2022-10-19T02:05:36.732Z,16.90
2022-10-19T02:08:10.366Z,16.80
2022-10-19T02:10:39.879Z,16.80
2022-10-19T02:13:07.649Z,16.80
2022-10-19T02:15:38.114Z,16.80
2022-10-19T02:18:06.987Z,16.80
2022-10-19T02:20:35.299Z,16.80
2022-10-19T02:23:05.101Z,16.80
2022-10-19T02:25:32.706Z,16.80
2022-10-19T02:28:00.821Z,16.80
2022-10-19T02:30:27.547Z,16.80
2022-10-19T02:32:54.528Z,16.80
2022-10-19T02:35:21.204Z,16.80
2022-10-19T02:37:47.770Z,16.80
2022-10-19T02:40:14.507Z,16.80
2022-10-19T02:43:00.120Z,16.80
2022-10-19T02:45:32.821Z,16.70
2022-10-19T02:48:04.065Z,16.70
2022-10-19T02:50:30.950Z,16.80
2022-10-19T02:53:00.725Z,16.70
2022-10-19T02:55:29.812Z,16.70
2022-10-19T02:57:57.275Z,16.70
2022-10-19T03:00:23.972Z,16.70
2022-10-19T03:02:51.303Z,16.70
2022-10-19T03:05:17.880Z,16.60
2022-10-19T03:07:44.524Z,16.70
2022-10-19T03:10:11.280Z,16.60
2022-10-19T03:12:37.954Z,16.60
2022-10-19T03:15:05.170Z,16.60
2022-10-19T03:17:32.270Z,16.60
2022-10-19T03:19:59.116Z,16.60
2022-10-19T03:22:25.752Z,16.70
2022-10-19T03:24:52.309Z,16.70
2022-10-19T03:27:18.957Z,16.60
2022-10-19T03:29:45.635Z,16.70
2022-10-19T03:32:12.284Z,16.80
2022-10-19T03:34:38.944Z,16.80
2022-10-19T03:37:05.951Z,16.80
2022-10-19T03:39:32.556Z,16.80
2022-10-19T03:41:59.184Z,16.80
2022-10-19T03:44:25.818Z,16.70
2022-10-19T03:46:52.400Z,16.70
2022-10-19T03:49:19.140Z,16.60
2022-10-19T03:51:45.692Z,16.60
2022-10-19T03:54:14.813Z,16.60
2022-10-19T03:56:42.362Z,16.60
2022-10-19T03:59:14.015Z,16.60
2022-10-19T04:01:43.819Z,16.60
2022-10-19T04:04:14.278Z,16.60
2022-10-19T04:06:43.575Z,16.60
2022-10-19T04:09:13.110Z,16.50
2022-10-19T04:11:40.305Z,16.50
2022-10-19T04:14:06.963Z,16.60
2022-10-19T04:16:34.282Z,16.60
2022-10-19T04:19:01.542Z,16.60
2022-10-19T04:21:33.938Z,16.60
2022-10-19T04:24:02.060Z,16.50
2022-10-19T04:26:29.203Z,16.50
2022-10-19T04:28:58.595Z,16.50
2022-10-19T04:31:25.868Z,16.50
2022-10-19T04:33:52.496Z,16.50
2022-10-19T04:36:19.504Z,16.50
2022-10-19T04:38:46.346Z,16.50
2022-10-19T04:41:15.169Z,16.50
2022-10-19T04:43:42.412Z,16.50
2022-10-19T04:46:17.831Z,16.50
2022-10-19T04:48:45.740Z,16.50
2022-10-19T04:51:12.690Z,16.40
2022-10-19T04:53:40.889Z,16.40
2022-10-19T04:56:09.960Z,16.40
2022-10-19T04:58:36.589Z,16.40
2022-10-19T05:01:18.633Z,16.40
2022-10-19T05:03:46.021Z,16.50
2022-10-19T05:06:13.484Z,16.40
2022-10-19T05:08:40.897Z,16.50
2022-10-19T05:11:17.110Z,16.50
2022-10-19T05:13:44.465Z,16.50
2022-10-19T05:16:19.906Z,16.50
2022-10-19T05:18:56.629Z,16.50
2022-10-19T05:21:23.395Z,16.50
2022-10-19T05:23:53.952Z,16.50
2022-10-19T05:26:24.290Z,16.50
2022-10-19T05:28:56.416Z,16.50
2022-10-19T05:31:26.225Z,16.50
2022-10-19T05:33:52.846Z,16.50
2022-10-19T05:36:26.612Z,16.50
2022-10-19T05:38:55.414Z,16.50
2022-10-19T05:41:23.459Z,16.50
2022-10-19T05:43:58.677Z,16.50
2022-10-19T05:46:26.698Z,16.50
2022-10-19T05:48:55.372Z,16.50
2022-10-19T05:51:23.424Z,16.50
2022-10-19T05:53:50.130Z,16.50
2022-10-19T05:56:19.413Z,16.50
2022-10-19T05:58:46.489Z,16.40
2022-10-19T06:01:14.106Z,16.50
2022-10-19T06:03:41.118Z,16.50
2022-10-19T06:06:09.269Z,16.50
2022-10-19T06:08:36.934Z,16.50
2022-10-19T06:11:12.814Z,16.50
2022-10-19T06:13:41.232Z,16.50
2022-10-19T06:16:09.262Z,16.50
2022-10-19T06:18:36.863Z,16.50
2022-10-19T06:21:10.216Z,16.50
2022-10-19T06:23:37.216Z,16.50
2022-10-19T06:26:06.363Z,16.40
2022-10-19T06:28:33.717Z,16.50
2022-10-19T06:31:00.808Z,16.50
2022-10-19T06:33:27.952Z,16.50
2022-10-19T06:35:54.550Z,16.50
2022-10-19T06:38:21.300Z,16.50
2022-10-19T06:40:49.092Z,16.50
2022-10-19T06:43:15.867Z,16.50
2022-10-19T06:45:42.537Z,16.60
2022-10-19T06:48:09.184Z,16.60
2022-10-19T06:50:35.890Z,16.60
2022-10-19T06:53:02.630Z,16.60
2022-10-19T06:55:29.237Z,16.60
2022-10-19T06:57:55.852Z,16.60
2022-10-19T07:00:22.499Z,16.60
2022-10-19T07:02:49.079Z,16.50
2022-10-19T07:05:15.813Z,16.50
2022-10-19T07:07:42.474Z,16.50
2022-10-19T07:10:09.377Z,16.50
2022-10-19T07:12:36.172Z,16.50
2022-10-19T07:15:02.907Z,16.50
2022-10-19T07:17:30.058Z,16.50
2022-10-19T07:19:56.728Z,16.50
2022-10-19T07:22:27.927Z,16.50
2022-10-19T07:24:54.730Z,16.50
2022-10-19T07:27:21.631Z,16.50
2022-10-19T07:29:48.240Z,16.50
2022-10-19T07:32:14.839Z,16.50
2022-10-19T07:34:41.423Z,16.50
2022-10-19T07:37:08.137Z,16.60
2022-10-19T07:39:34.955Z,16.50
2022-10-19T07:42:01.571Z,16.50
2022-10-19T07:44:28.216Z,16.50
2022-10-19T07:46:54.872Z,16.50
2022-10-19T07:49:21.792Z,16.50
2022-10-19T07:51:48.827Z,16.60
2022-10-19T07:54:15.485Z,16.60
2022-10-19T07:56:42.121Z,16.50
2022-10-19T07:59:09.870Z,16.60
2022-10-19T08:01:41.467Z,16.60
2022-10-19T08:06:55.133Z,16.60
2022-10-19T08:09:51.387Z,16.60
2022-10-19T08:12:13.807Z,16.60
2022-10-19T08:14:41.424Z,16.60
2022-10-19T08:17:11.548Z,16.70
2022-10-19T08:19:43.052Z,16.70
2022-10-19T08:22:09.897Z,16.60
2022-10-19T08:24:36.732Z,16.70
2022-10-19T08:27:03.577Z,16.70
2022-10-19T08:29:31.548Z,16.70
2022-10-19T08:31:59.131Z,16.70
2022-10-19T08:34:25.948Z,16.70
2022-10-19T08:36:52.598Z,16.70
2022-10-19T08:39:19.254Z,16.70
2022-10-19T08:42:17.740Z,16.70
2022-10-19T08:44:59.399Z,16.70
2022-10-19T08:47:49.346Z,16.80
2022-10-19T08:50:23.776Z,16.80
2022-10-19T08:53:07.948Z,16.90
2022-10-19T08:55:52.649Z,16.90
2022-10-19T08:58:32.134Z,16.90
2022-10-19T09:01:10.731Z,16.90
2022-10-19T09:04:01.878Z,16.90
2022-10-19T09:07:02.424Z,16.90
2022-10-19T09:09:31.616Z,17.00
2022-10-19T09:12:04.169Z,16.90
2022-10-19T09:14:52.655Z,16.90
2022-10-19T09:17:20.039Z,16.90
2022-10-19T09:19:46.775Z,16.90
2022-10-19T09:22:20.592Z,16.90
2022-10-19T09:24:53.693Z,17.00
2022-10-19T09:27:23.628Z,17.10
2022-10-19T09:29:56.172Z,17.10
2022-10-19T09:32:30.904Z,17.10
2022-10-19T09:35:02.321Z,17.10
2022-10-19T09:40:02.061Z,17.20
2022-10-19T09:42:33.013Z,17.20
2022-10-19T09:45:11.257Z,17.20
2022-10-19T09:47:45.786Z,17.20
2022-10-19T09:50:21.702Z,17.20
2022-10-19T09:52:53.653Z,17.20
2022-10-19T09:55:38.108Z,17.20
2022-10-19T09:58:12.793Z,17.20
2022-10-19T10:00:44.109Z,17.30
2022-10-19T10:03:24.350Z,17.30
2022-10-19T10:05:51.592Z,17.30
2022-10-19T10:08:25.562Z,17.40
2022-10-19T10:11:13.840Z,17.40
2022-10-19T10:13:49.087Z,17.30
2022-10-19T10:16:18.458Z,17.40
2022-10-19T10:18:55.648Z,17.40
2022-10-19T10:21:34.479Z,17.40
2022-10-19T10:24:05.904Z,17.40
2022-10-19T10:26:42.563Z,17.40
2022-10-19T10:29:27.806Z,17.30
2022-10-19T10:32:08.898Z,17.30
2022-10-19T10:34:50.553Z,17.30
2022-10-19T10:37:43.615Z,17.30
2022-10-19T10:40:27.817Z,17.30
2022-10-19T10:43:10.990Z,17.20
2022-10-19T10:45:49.508Z,17.20
2022-10-19T10:48:37.128Z,17.20
2022-10-19T10:51:19.666Z,17.20
2022-10-19T10:53:47.119Z,17.30
2022-10-19T10:56:30.111Z,17.20
2022-10-19T10:59:10.356Z,17.20
2022-10-19T11:01:41.325Z,17.20
2022-10-19T11:04:19.800Z,17.20
2022-10-19T11:07:12.317Z,17.20
2022-10-19T11:09:44.312Z,17.20
2022-10-19T11:12:15.991Z,17.20
2022-10-19T11:14:59.200Z,17.20
2022-10-19T11:17:29.606Z,17.20
2022-10-19T11:19:56.341Z,17.50
2022-10-19T11:22:43.211Z,17.70
2022-10-19T11:25:54.313Z,17.90
2022-10-19T11:28:35.988Z,18.00
2022-10-19T11:31:41.204Z,17.90
2022-10-19T11:34:36.941Z,18.00
2022-10-19T11:37:18.990Z,18.00
2022-10-19T11:40:16.074Z,17.80
2022-10-19T11:43:06.944Z,17.90
2022-10-19T11:45:58.500Z,17.80
2022-10-19T11:48:40.404Z,17.80
2022-10-19T11:51:57.295Z,17.80
2022-10-19T11:54:42.503Z,17.90
2022-10-19T11:57:20.415Z,17.90
2022-10-19T12:00:15.454Z,17.90
2022-10-19T12:03:17.999Z,17.90
2022-10-19T12:06:10.856Z,18.10
2022-10-19T12:08:57.954Z,18.20
2022-10-19T12:11:45.267Z,18.20
2022-10-19T12:14:34.685Z,18.20
2022-10-19T12:17:08.621Z,18.20
2022-10-19T12:19:42.299Z,18.20
2022-10-19T12:22:16.713Z,18.30
2022-10-19T12:24:43.431Z,18.30
2022-10-19T12:27:16.188Z,18.30
2022-10-19T12:29:46.577Z,18.30
2022-10-19T12:32:16.655Z,18.30
2022-10-19T12:34:59.101Z,18.30
2022-10-19T12:37:44.458Z,18.40
2022-10-19T12:40:38.215Z,18.40
2022-10-19T12:43:24.431Z,18.50
2022-10-19T12:46:08.369Z,18.60
2022-10-19T12:48:37.061Z,18.50
2022-10-19T12:51:06.876Z,18.50
2022-10-19T12:53:39.241Z,18.50
2022-10-19T12:56:22.862Z,18.50
2022-10-19T12:59:01.313Z,18.50
2022-10-19T13:01:29.666Z,18.50
2022-10-19T13:04:13.500Z,18.40
2022-10-19T13:06:49.361Z,18.40
2022-10-19T13:09:30.356Z,18.40
2022-10-19T13:12:22.122Z,18.50
2022-10-19T13:15:04.674Z,18.60
2022-10-19T13:17:34.443Z,18.50
2022-10-19T13:20:16.277Z,18.50
2022-10-19T13:22:59.336Z,18.50
2022-10-19T13:25:30.056Z,18.50
2022-10-19T13:28:18.719Z,18.60
2022-10-19T13:30:45.341Z,18.70
2022-10-19T13:33:33.293Z,18.70
2022-10-19T13:36:00.115Z,18.60
2022-10-19T13:38:55.827Z,18.60
2022-10-19T13:41:27.067Z,18.50
2022-10-19T13:44:04.020Z,18.50
2022-10-19T13:46:30.600Z,18.50
2022-10-19T13:49:16.128Z,18.50
2022-10-19T13:51:53.217Z,18.50
2022-10-19T13:54:44.569Z,18.50
2022-10-19T13:57:20.681Z,18.50
2022-10-19T14:00:05.350Z,18.50
2022-10-19T14:02:51.492Z,18.60
2022-10-19T14:05:31.127Z,18.50
2022-10-19T14:08:13.972Z,18.40
2022-10-19T14:11:00.183Z,18.40
2022-10-19T14:13:27.850Z,18.40
2022-10-19T14:15:57.871Z,18.40
2022-10-19T14:18:29.515Z,18.40
2022-10-19T14:21:08.412Z,18.40
2022-10-19T14:23:37.041Z,18.40
2022-10-19T14:26:16.549Z,18.40
2022-10-19T14:28:43.480Z,18.30
2022-10-19T14:31:17.509Z,18.40
2022-10-19T14:33:50.064Z,18.40
2022-10-19T14:36:19.774Z,18.40
2022-10-19T14:38:48.972Z,18.40
2022-10-19T14:41:30.882Z,18.40
2022-10-19T14:43:59.692Z,18.40
2022-10-19T14:46:34.222Z,18.40
2022-10-19T14:49:03.172Z,18.40
2022-10-19T14:52:00.280Z,18.40
2022-10-19T14:54:36.352Z,18.40
2022-10-19T14:57:23.643Z,18.40
2022-10-19T14:59:58.015Z,18.40
2022-10-19T15:02:32.393Z,18.40
2022-10-19T15:05:03.177Z,18.30
2022-10-19T15:07:39.611Z,18.30
2022-10-19T15:10:30.226Z,18.30
2022-10-19T15:13:06.216Z,18.40
2022-10-19T15:15:35.062Z,18.40
2022-10-19T15:18:01.833Z,18.40
2022-10-19T15:20:43.913Z,18.30
2022-10-19T15:23:45.886Z,18.40
2022-10-19T15:26:28.608Z,18.30
2022-10-19T15:29:18.836Z,18.30
2022-10-19T15:31:45.669Z,18.30
2022-10-19T15:34:30.915Z,18.30
2022-10-19T15:37:00.340Z,18.20
2022-10-19T15:39:39.794Z,18.20
2022-10-19T15:42:36.655Z,18.20
2022-10-19T15:45:24.489Z,18.20
2022-10-19T15:48:10.063Z,18.10
2022-10-19T15:50:42.400Z,18.10
2022-10-19T15:53:09.300Z,18.10
2022-10-19T15:55:36.200Z,18.10
2022-10-19T15:58:03.000Z,18.10
2022-10-19T16:00:30.717Z,18.00
2022-10-19T16:02:57.341Z,18.10
2022-10-19T16:05:24.165Z,18.00
2022-10-19T16:07:51.062Z,18.00
2022-10-19T16:10:24.008Z,18.00
2022-10-19T16:12:50.988Z,17.90
2022-10-19T16:15:24.439Z,17.90
2022-10-19T16:17:54.093Z,17.90
2022-10-19T16:20:21.615Z,17.90
2022-10-19T16:22:48.705Z,17.90
2022-10-19T16:25:15.905Z,17.90
2022-10-19T16:27:42.674Z,17.90
2022-10-19T16:30:10.180Z,17.80
2022-10-19T16:32:37.481Z,17.80
2022-10-19T16:35:04.432Z,17.80
2022-10-19T16:37:31.014Z,17.80
2022-10-19T16:39:57.652Z,17.70
2022-10-19T16:42:28.234Z,17.70
2022-10-19T16:44:57.119Z,17.70
2022-10-19T16:47:23.712Z,17.60
2022-10-19T16:49:58.891Z,17.70
2022-10-19T16:52:31.325Z,17.60
2022-10-19T16:54:58.211Z,17.60
2022-10-19T16:57:25.214Z,17.60
2022-10-19T17:02:25.297Z,17.50
2022-10-19T17:04:52.163Z,17.50
2022-10-19T17:07:18.888Z,17.50
2022-10-19T17:09:45.555Z,17.50
2022-10-19T17:12:13.304Z,17.40
2022-10-19T17:14:41.308Z,17.40
2022-10-19T17:17:09.140Z,17.40
2022-10-19T17:19:37.015Z,17.40
2022-10-19T17:22:05.030Z,17.40
2022-10-19T17:24:32.055Z,17.40
2022-10-19T17:27:01.805Z,17.30
2022-10-19T17:29:28.495Z,17.40
2022-10-19T17:31:55.300Z,17.40
2022-10-19T17:34:21.929Z,17.30
2022-10-19T17:36:48.755Z,17.30
2022-10-19T17:39:25.548Z,17.30
2022-10-19T17:41:55.867Z,17.30
2022-10-19T17:44:22.809Z,17.20
2022-10-19T17:46:49.690Z,17.20
2022-10-19T17:49:16.459Z,17.20
2022-10-19T17:51:43.603Z,17.20
2022-10-19T17:54:13.341Z,17.20
2022-10-19T17:56:40.813Z,17.20
2022-10-19T17:59:08.863Z,17.10
2022-10-19T18:01:36.783Z,17.10
2022-10-19T18:04:04.303Z,17.10
2022-10-19T18:06:33.129Z,17.10
2022-10-19T18:09:01.832Z,17.10
2022-10-19T18:11:35.967Z,17.10
2022-10-19T18:14:03.492Z,17.00
2022-10-19T18:16:33.456Z,17.10
2022-10-19T18:19:02.120Z,17.00
2022-10-19T18:21:31.208Z,17.00
2022-10-19T18:23:59.840Z,17.00
2022-10-19T18:26:29.346Z,17.00
2022-10-19T18:28:57.239Z,16.90
2022-10-19T18:31:28.579Z,16.90
2022-10-19T18:33:58.038Z,16.90
2022-10-19T18:36:24.786Z,16.90
2022-10-19T18:38:52.971Z,16.90
2022-10-19T18:41:20.525Z,16.80
2022-10-19T18:43:56.419Z,16.80
2022-10-19T18:46:24.142Z,16.80
2022-10-19T18:48:51.108Z,16.80
2022-10-19T18:51:19.528Z,16.80
2022-10-19T18:53:47.303Z,16.80
2022-10-19T18:56:18.317Z,16.80
2022-10-19T18:58:45.156Z,16.70
2022-10-19T19:01:22.974Z,16.70
2022-10-19T19:03:51.314Z,16.60
2022-10-19T19:06:29.384Z,16.60
2022-10-19T19:08:57.494Z,16.60
2022-10-19T19:11:31.748Z,16.60
2022-10-19T19:14:13.788Z,16.60
2022-10-19T19:16:42.284Z,16.60
2022-10-19T19:19:11.240Z,16.60
2022-10-19T19:21:40.944Z,16.50
2022-10-19T19:24:08.049Z,16.50
2022-10-19T19:26:38.685Z,16.50
2022-10-19T19:29:05.572Z,16.50
2022-10-19T19:31:32.337Z,16.50
2022-10-19T19:34:02.931Z,16.50
2022-10-19T19:36:29.661Z,16.50
2022-10-19T19:38:57.554Z,16.40
2022-10-19T19:41:24.488Z,16.40
2022-10-19T19:43:51.056Z,16.40
2022-10-19T19:46:19.615Z,16.50
2022-10-19T19:48:47.953Z,16.40
2022-10-19T19:51:20.304Z,16.40
2022-10-19T19:53:47.796Z,16.40
2022-10-19T19:56:15.892Z,16.30
2022-10-19T19:58:44.064Z,16.30
2022-10-19T20:01:17.384Z,16.40
2022-10-19T20:03:45.704Z,16.40
2022-10-19T20:06:14.063Z,16.40
2022-10-19T20:08:40.867Z,16.30
2022-10-19T20:11:10.667Z,16.30
2022-10-19T20:13:37.819Z,16.30
2022-10-19T20:16:15.729Z,16.30
2022-10-19T20:18:46.011Z,16.30
2022-10-19T20:21:13.222Z,16.30
2022-10-19T20:23:40.006Z,16.20
2022-10-19T20:26:08.897Z,16.30
2022-10-19T20:28:35.488Z,16.30
2022-10-19T20:31:04.256Z,16.20
2022-10-19T20:33:32.803Z,16.20
2022-10-19T20:36:04.890Z,16.20
2022-10-19T20:38:31.704Z,16.20
2022-10-19T20:40:58.313Z,16.20
2022-10-19T20:43:24.913Z,16.20
2022-10-19T20:45:51.657Z,16.20
2022-10-19T20:48:18.219Z,16.10
2022-10-19T20:50:44.839Z,16.20
2022-10-19T20:53:12.440Z,16.20
2022-10-19T20:55:39.771Z,16.10
2022-10-19T20:58:06.432Z,16.10
2022-10-19T21:00:33.165Z,16.10
2022-10-19T21:02:59.893Z,16.10
2022-10-19T21:05:26.536Z,16.20
2022-10-19T21:07:53.386Z,16.20
2022-10-19T21:10:20.012Z,16.10
2022-10-19T21:12:46.659Z,16.10
2022-10-19T21:15:13.222Z,16.10
2022-10-19T21:17:39.826Z,16.10
2022-10-19T21:20:06.980Z,16.10
2022-10-19T21:22:39.069Z,16.00
2022-10-19T21:25:06.205Z,16.00
2022-10-19T21:27:33.022Z,16.10
2022-10-19T21:29:59.797Z,16.00
2022-10-19T21:32:26.490Z,16.00
2022-10-19T21:34:53.175Z,16.00
2022-10-19T21:37:19.765Z,16.00
2022-10-19T21:39:46.340Z,15.90
2022-10-19T21:42:12.942Z,15.90
2022-10-19T21:44:39.505Z,15.90
2022-10-19T21:47:07.797Z,15.90
2022-10-19T21:49:34.426Z,16.00
2022-10-19T21:52:01.050Z,15.90
2022-10-19T21:54:29.123Z,15.90
2022-10-19T21:56:57.568Z,15.90
2022-10-19T21:59:25.079Z,15.90
2022-10-19T22:01:51.831Z,15.90
2022-10-19T22:04:18.768Z,15.90
2022-10-19T22:06:45.481Z,15.80
2022-10-19T22:09:16.035Z,15.80
2022-10-19T22:11:43.237Z,15.80
2022-10-19T22:14:11.381Z,15.70
2022-10-19T22:16:39.245Z,15.70
2022-10-19T22:19:06.002Z,15.70
2022-10-19T22:21:34.460Z,15.70
2022-10-19T22:24:03.799Z,15.60
2022-10-19T22:26:36.374Z,15.60
2022-10-19T22:29:05.063Z,15.50
2022-10-19T22:31:32.956Z,15.50
2022-10-19T22:34:01.550Z,15.50
2022-10-19T22:36:28.346Z,15.50
2022-10-19T22:38:55.125Z,15.60
2022-10-19T22:41:21.838Z,15.60
2022-10-19T22:43:48.448Z,15.50
2022-10-19T22:46:15.079Z,15.50
2022-10-19T22:48:41.695Z,15.50
2022-10-19T22:51:08.331Z,15.50
2022-10-19T22:53:35.092Z,15.50
2022-10-19T22:56:01.904Z,15.50
2022-10-19T22:58:28.547Z,15.50
2022-10-19T23:01:10.139Z,15.50
2022-10-19T23:03:39.222Z,15.50
2022-10-19T23:06:11.835Z,15.50
2022-10-19T23:08:38.869Z,15.40
2022-10-19T23:11:05.715Z,15.40
2022-10-19T23:13:32.603Z,15.40
2022-10-19T23:15:59.278Z,15.30
2022-10-19T23:18:26.052Z,15.30
2022-10-19T23:20:57.401Z,15.30
2022-10-19T23:23:24.112Z,15.30
2022-10-19T23:26:02.755Z,15.30
2022-10-19T23:28:30.816Z,15.30
2022-10-19T23:31:04.293Z,15.30
2022-10-19T23:33:31.230Z,15.30
2022-10-19T23:36:08.929Z,15.30
2022-10-19T23:38:35.995Z,15.30
2022-10-19T23:41:02.940Z,15.30
2022-10-19T23:43:30.014Z,15.20
2022-10-19T23:45:56.884Z,15.20
2022-10-19T23:48:23.877Z,15.20
2022-10-19T23:50:58.491Z,15.10
2022-10-19T23:53:25.657Z,15.10
2022-10-19T23:55:57.363Z,15.10
2022-10-19T23:58:23.968Z,15.10
